createdAt,value
2022-07-29T00:25:34.269Z,25.68
2022-07-29T00:54:14.724Z,25.64
2022-07-29T01:22:49.166Z,25.64
2022-07-29T01:51:40.641Z,25.62
2022-07-29T02:20:32.609Z,25.57
2022-07-29T02:49:20.117Z,25.55
2022-07-29T03:18:06.296Z,25.52
2022-07-29T03:46:58.019Z,25.46
2022-07-29T04:15:43.546Z,25.15
2022-07-29T04:44:29.223Z,25.03
2022-07-29T04:49:52.296Z,24.95
2022-07-29T05:18:34.707Z,24.98
2022-07-29T05:47:27.512Z,25.16
2022-07-29T06:16:26.157Z,25.18
2022-07-29T06:44:46.695Z,25.7
2022-07-29T07:13:27.153Z,26.02
2022-07-29T07:42:07.112Z,25.86
2022-07-29T08:10:42.698Z,25.95
2022-07-29T08:39:17.923Z,26
2022-07-29T09:07:58.634Z,26
2022-07-29T09:36:41.321Z,26.02
2022-07-29T10:05:12.908Z,26.1
2022-07-29T10:33:57.835Z,26.15
2022-07-29T11:02:42.795Z,26.14
2022-07-29T11:30:58.103Z,26.12
2022-07-29T11:59:35.556Z,26.24
2022-07-29T12:27:58.443Z,26.22
2022-07-29T12:56:43.925Z,26.24
2022-07-29T13:24:52.285Z,26.32
2022-07-29T13:53:31.902Z,26.22
2022-07-29T14:22:15.208Z,26.29
2022-07-29T14:50:45.187Z,26.38
2022-07-29T15:19:21.353Z,26.36
2022-07-29T15:47:53.487Z,26.36
2022-07-29T16:16:27.931Z,26.39
2022-07-29T16:45:06.153Z,26.42
2022-07-29T17:13:36.421Z,26.43
2022-07-29T17:42:20.318Z,26.41
2022-07-29T18:10:39.864Z,26.39
2022-07-29T18:39:21.639Z,26.3
2022-07-29T19:07:44.369Z,26.23
2022-07-29T19:36:28.185Z,26.16
2022-07-29T20:05:04.514Z,26.1
2022-07-29T20:33:35.225Z,26.02
2022-07-29T21:02:09.687Z,25.97
2022-07-29T21:30:38.135Z,25.94
2022-07-29T21:59:17.271Z,25.87
2022-07-29T22:27:51.159Z,25.83
2022-07-29T22:56:42.310Z,25.75
2022-07-29T23:25:21.494Z,25.74
2022-07-29T23:54:09.274Z,25.73
